sensor_id;sensor_type;location;lat;lon;timestamp;pressure;altitude;pressure_sealevel;temperature;humidity
61324;BME280;47203;48.428;11.974;2022-12-29T00:01:52;96610.03;;;6.97;51.70
61324;BME280;47203;48.428;11.974;2022-12-29T00:03:59;96612.63;;;6.97;51.52
61324;BME280;47203;48.428;11.974;2022-12-29T00:06:05;96617.63;;;6.99;51.43
61324;BME280;47203;48.428;11.974;2022-12-29T00:08:10;96619.75;;;7.02;51.43
61324;BME280;47203;48.428;11.974;2022-12-29T00:10:18;96610.88;;;7.03;51.50
61324;BME280;47203;48.428;11.974;2022-12-29T00:12:28;96603.56;;;7.05;51.51
61324;BME280;47203;48.428;11.974;2022-12-29T00:14:57;96605.72;;;7.08;51.55
61324;BME280;47203;48.428;11.974;2022-12-29T00:17:18;96594.94;;;7.05;51.30
61324;BME280;47203;48.428;11.974;2022-12-29T00:19:27;96601.56;;;7.12;51.50
61324;BME280;47203;48.428;11.974;2022-12-29T00:21:45;96601.31;;;7.14;51.34
61324;BME280;47203;48.428;11.974;2022-12-29T00:24:04;96604.97;;;7.13;51.36
61324;BME280;47203;48.428;11.974;2022-12-29T00:26:26;96591.88;;;7.13;51.56
61324;BME280;47203;48.428;11.974;2022-12-29T00:28:45;96599.75;;;7.13;51.58
61324;BME280;47203;48.428;11.974;2022-12-29T00:31:11;96599.75;;;7.13;51.56
61324;BME280;47203;48.428;11.974;2022-12-29T00:33:32;96594.75;;;7.11;51.53
61324;BME280;47203;48.428;11.974;2022-12-29T00:35:57;96592.38;;;7.10;51.67
61324;BME280;47203;48.428;11.974;2022-12-29T00:38:07;96590.78;;;7.09;51.32
61324;BME280;47203;48.428;11.974;2022-12-29T00:40:26;96588.72;;;7.11;51.61
61324;BME280;47203;48.428;11.974;2022-12-29T00:42:47;96599.75;;;7.13;51.48
61324;BME280;47203;48.428;11.974;2022-12-29T00:45:06;96589.28;;;7.13;51.55
61324;BME280;47203;48.428;11.974;2022-12-29T00:47:12;96596.06;;;7.14;51.59
61324;BME280;47203;48.428;11.974;2022-12-29T00:49:19;96591.09;;;7.12;51.48
61324;BME280;47203;48.428;11.974;2022-12-29T00:51:36;96598.94;;;7.12;51.55
61324;BME280;47203;48.428;11.974;2022-12-29T00:53:41;96597.38;;;7.11;51.44
61324;BME280;47203;48.428;11.974;2022-12-29T00:55:47;96594.75;;;7.11;51.60
61324;BME280;47203;48.428;11.974;2022-12-29T00:57:55;96595.28;;;7.13;51.67
61324;BME280;47203;48.428;11.974;2022-12-29T01:00:01;96595.84;;;7.15;51.66
61324;BME280;47203;48.428;11.974;2022-12-29T01:02:09;96592.66;;;7.13;51.70
61324;BME280;47203;48.428;11.974;2022-12-29T01:04:15;96592.19;;;7.16;51.58
61324;BME280;47203;48.428;11.974;2022-12-29T01:06:21;96601.09;;;7.15;51.46
61324;BME280;47203;48.428;11.974;2022-12-29T01:08:28;96607.09;;;7.16;51.59
61324;BME280;47203;48.428;11.974;2022-12-29T01:10:34;96602.41;;;7.18;51.38
61324;BME280;47203;48.428;11.974;2022-12-29T01:12:37;96597.13;;;7.13;51.75
61324;BME280;47203;48.428;11.974;2022-12-29T01:14:50;96603.47;;;7.17;51.35
61324;BME280;47203;48.428;11.974;2022-12-29T01:16:56;96602.66;;;7.16;51.45
61324;BME280;47203;48.428;11.974;2022-12-29T01:19:01;96599.78;;;7.18;51.62
61324;BME280;47203;48.428;11.974;2022-12-29T01:21:08;96601.38;;;7.19;51.62
61324;BME280;47203;48.428;11.974;2022-12-29T01:23:16;96599.00;;;7.18;51.49
61324;BME280;47203;48.428;11.974;2022-12-29T01:25:22;96602.97;;;7.20;51.55
61324;BME280;47203;48.428;11.974;2022-12-29T01:27:27;96604.78;;;7.20;51.55
61324;BME280;47203;48.428;11.974;2022-12-29T01:29:33;96601.38;;;7.19;51.48
61324;BME280;47203;48.428;11.974;2022-12-29T01:31:42;96601.38;;;7.19;51.33
61324;BME280;47203;48.428;11.974;2022-12-29T01:33:48;96603.22;;;7.19;51.49
61324;BME280;47203;48.428;11.974;2022-12-29T01:35:53;96595.03;;;7.15;51.42
61324;BME280;47203;48.428;11.974;2022-12-29T01:37:59;96594.50;;;7.13;51.22
61324;BME280;47203;48.428;11.974;2022-12-29T01:40:05;96599.50;;;7.14;51.60
61324;BME280;47203;48.428;11.974;2022-12-29T01:42:17;96604.16;;;7.12;51.45
61324;BME280;47203;48.428;11.974;2022-12-29T01:44:47;96597.63;;;7.10;51.42
61324;BME280;47203;48.428;11.974;2022-12-29T01:46:56;96596.03;;;7.09;51.41
61324;BME280;47203;48.428;11.974;2022-12-29T01:49:08;96585.81;;;7.07;51.36
61324;BME280;47203;48.428;11.974;2022-12-29T01:51:17;96584.47;;;7.05;51.49
61324;BME280;47203;48.428;11.974;2022-12-29T01:53:27;96583.34;;;7.01;51.52
61324;BME280;47203;48.428;11.974;2022-12-29T01:55:39;96583.06;;;6.97;51.50
61324;BME280;47203;48.428;11.974;2022-12-29T01:57:50;96575.97;;;6.92;51.74
61324;BME280;47203;48.428;11.974;2022-12-29T02:00:01;96581.19;;;6.92;51.53
61324;BME280;47203;48.428;11.974;2022-12-29T02:02:16;96576.19;;;6.91;51.63
61324;BME280;47203;48.428;11.974;2022-12-29T02:04:24;96581.69;;;6.89;51.58
61324;BME280;47203;48.428;11.974;2022-12-29T02:06:39;96573.75;;;6.84;51.75
61324;BME280;47203;48.428;11.974;2022-12-29T02:08:49;96571.38;;;6.82;51.67
61324;BME280;47203;48.428;11.974;2022-12-29T02:11:00;96568.69;;;6.77;51.57
61324;BME280;47203;48.428;11.974;2022-12-29T02:13:08;96573.69;;;6.79;51.70
61324;BME280;47203;48.428;11.974;2022-12-29T02:15:15;96569.75;;;6.76;51.44
61324;BME280;47203;48.428;11.974;2022-12-29T02:17:41;96569.41;;;6.73;51.70
61324;BME280;47203;48.428;11.974;2022-12-29T02:22:52;96568.88;;;6.71;51.33
61324;BME280;47203;48.428;11.974;2022-12-29T02:25:30;96564.44;;;6.71;51.54
61324;BME280;47203;48.428;11.974;2022-12-29T02:28:03;96566.28;;;6.71;51.34
61324;BME280;47203;48.428;11.974;2022-12-29T02:30:55;96562.06;;;6.70;51.39
61324;BME280;47203;48.428;11.974;2022-12-29T02:33:17;96558.91;;;6.68;51.49
61324;BME280;47203;48.428;11.974;2022-12-29T02:35:35;96561.03;;;6.71;51.37
61324;BME280;47203;48.428;11.974;2022-12-29T02:37:49;96560.78;;;6.72;51.38
61324;BME280;47203;48.428;11.974;2022-12-29T02:40:06;96554.28;;;6.75;51.43
61324;BME280;47203;48.428;11.974;2022-12-29T02:42:25;96557.19;;;6.78;51.36
61324;BME280;47203;48.428;11.974;2022-12-29T02:44:42;96558.56;;;6.81;51.61
61324;BME280;47203;48.428;11.974;2022-12-29T02:47:04;96561.69;;;6.83;51.35
61324;BME280;47203;48.428;11.974;2022-12-29T02:49:19;96557.81;;;6.86;51.45
61324;BME280;47203;48.428;11.974;2022-12-29T02:51:31;96557.06;;;6.90;51.30
61324;BME280;47203;48.428;11.974;2022-12-29T02:53:39;96560.25;;;6.92;51.25
61324;BME280;47203;48.428;11.974;2022-12-29T02:55:57;96557.16;;;6.95;51.59
61324;BME280;47203;48.428;11.974;2022-12-29T02:58:22;96548.50;;;6.95;51.30
61324;BME280;47203;48.428;11.974;2022-12-29T03:00:28;96551.09;;;6.95;51.22
61324;BME280;47203;48.428;11.974;2022-12-29T03:03:06;96551.34;;;6.93;51.54
61324;BME280;47203;48.428;11.974;2022-12-29T03:08:13;96553.69;;;6.90;51.54
61324;BME280;47203;48.428;11.974;2022-12-29T03:10:35;96550.50;;;6.88;51.49
61324;BME280;47203;48.428;11.974;2022-12-29T03:12:49;96547.34;;;6.86;51.52
61324;BME280;47203;48.428;11.974;2022-12-29T03:15:19;96552.56;;;6.86;51.35
61324;BME280;47203;48.428;11.974;2022-12-29T03:17:52;96542.13;;;6.86;51.75
61324;BME280;47203;48.428;11.974;2022-12-29T03:20:05;96542.13;;;6.86;51.45
61324;BME280;47203;48.428;11.974;2022-12-29T03:22:21;96530.63;;;6.87;51.38
61324;BME280;47203;48.428;11.974;2022-12-29T03:24:48;96533.53;;;6.90;51.35
61324;BME280;47203;48.428;11.974;2022-12-29T03:26:59;96536.72;;;6.92;51.45
61324;BME280;47203;48.428;11.974;2022-12-29T03:29:12;96527.56;;;6.95;51.46
61324;BME280;47203;48.428;11.974;2022-12-29T03:31:23;96546.13;;;6.93;51.59
61324;BME280;47203;48.428;11.974;2022-12-29T03:33:33;96539.31;;;6.92;51.61
61324;BME280;47203;48.428;11.974;2022-12-29T03:35:42;96540.34;;;6.91;51.41
61324;BME280;47203;48.428;11.974;2022-12-29T03:37:57;96533.03;;;6.93;51.48
61324;BME280;47203;48.428;11.974;2022-12-29T03:40:06;96535.41;;;6.95;51.43
61324;BME280;47203;48.428;11.974;2022-12-29T03:42:17;96534.94;;;6.98;51.71
61324;BME280;47203;48.428;11.974;2022-12-29T03:44:32;96539.13;;;6.99;51.50
61324;BME280;47203;48.428;11.974;2022-12-29T03:46:39;96535.47;;;7.00;51.38
61324;BME280;47203;48.428;11.974;2022-12-29T03:48:48;96538.09;;;7.00;51.45
61324;BME280;47203;48.428;11.974;2022-12-29T03:50:53;96546.47;;;7.02;51.54
61324;BME280;47203;48.428;11.974;2022-12-29T03:52:59;96537.34;;;7.05;51.66
61324;BME280;47203;48.428;11.974;2022-12-29T03:55:07;96537.91;;;7.07;51.37
61324;BME280;47203;48.428;11.974;2022-12-29T03:57:14;96536.06;;;7.07;51.32
61324;BME280;47203;48.428;11.974;2022-12-29T03:59:28;96529.56;;;7.10;51.58
61324;BME280;47203;48.428;11.974;2022-12-29T04:01:33;96529.84;;;7.13;51.29
61324;BME280;47203;48.428;11.974;2022-12-29T04:03:39;96530.41;;;7.15;51.35
61324;BME280;47203;48.428;11.974;2022-12-29T04:05:49;96533.31;;;7.19;51.33
61324;BME280;47203;48.428;11.974;2022-12-29T04:07:56;96533.31;;;7.19;51.18
61324;BME280;47203;48.428;11.974;2022-12-29T04:10:03;96537.53;;;7.20;51.16
61324;BME280;47203;48.428;11.974;2022-12-29T04:12:09;96532.53;;;7.19;51.47
61324;BME280;47203;48.428;11.974;2022-12-29T04:14:17;96536.47;;;7.21;51.51
61324;BME280;47203;48.428;11.974;2022-12-29T04:16:22;96538.06;;;7.22;51.46
61324;BME280;47203;48.428;11.974;2022-12-29T04:18:28;96529.19;;;7.23;51.14
61324;BME280;47203;48.428;11.974;2022-12-29T04:20:34;96526.84;;;7.27;51.26
61324;BME280;47203;48.428;11.974;2022-12-29T04:23:00;96535.50;;;7.27;51.35
61324;BME280;47203;48.428;11.974;2022-12-29T04:25:08;96528.19;;;7.29;51.23
61324;BME280;47203;48.428;11.974;2022-12-29T04:27:14;96522.94;;;7.29;51.41
61324;BME280;47203;48.428;11.974;2022-12-29T04:29:43;96519.53;;;7.29;51.35
61324;BME280;47203;48.428;11.974;2022-12-29T04:32:06;96522.94;;;7.29;51.39
61324;BME280;47203;48.428;11.974;2022-12-29T04:34:17;96527.94;;;7.31;51.05
61324;BME280;47203;48.428;11.974;2022-12-29T04:36:23;96521.09;;;7.30;50.97
61324;BME280;47203;48.428;11.974;2022-12-29T04:38:34;96513.25;;;7.30;51.20
61324;BME280;47203;48.428;11.974;2022-12-29T04:40:42;96518.50;;;7.30;51.33
61324;BME280;47203;48.428;11.974;2022-12-29T04:42:48;96510.16;;;7.33;50.94
61324;BME280;47203;48.428;11.974;2022-12-29T04:44:55;96505.72;;;7.33;51.04
61324;BME280;47203;48.428;11.974;2022-12-29T04:47:11;96508.59;;;7.37;51.17
61324;BME280;47203;48.428;11.974;2022-12-29T04:49:38;96505.75;;;7.39;51.27
61324;BME280;47203;48.428;11.974;2022-12-29T04:52:15;96502.09;;;7.40;51.00
61324;BME280;47203;48.428;11.974;2022-12-29T04:54:24;96500.81;;;7.42;50.92
61324;BME280;47203;48.428;11.974;2022-12-29T04:56:49;96503.19;;;7.44;51.13
61324;BME280;47203;48.428;11.974;2022-12-29T04:58:55;96500.56;;;7.44;51.22
61324;BME280;47203;48.428;11.974;2022-12-29T05:01:01;96503.22;;;7.49;50.98
61324;BME280;47203;48.428;11.974;2022-12-29T05:03:07;96498.53;;;7.51;50.87
61324;BME280;47203;48.428;11.974;2022-12-29T05:05:15;96504.84;;;7.55;50.82
61324;BME280;47203;48.428;11.974;2022-12-29T05:07:24;96493.31;;;7.56;51.11
61324;BME280;47203;48.428;11.974;2022-12-29T05:09:33;96501.47;;;7.60;50.84
61324;BME280;47203;48.428;11.974;2022-12-29T05:11:39;96514.56;;;7.60;50.84
61324;BME280;47203;48.428;11.974;2022-12-29T05:13:45;96512.78;;;7.65;50.92
61324;BME280;47203;48.428;11.974;2022-12-29T05:15:53;96511.25;;;7.69;50.66
61324;BME280;47203;48.428;11.974;2022-12-29T05:17:59;96515.75;;;7.74;50.85
61324;BME280;47203;48.428;11.974;2022-12-29T05:20:07;96515.25;;;7.77;50.91
61324;BME280;47203;48.428;11.974;2022-12-29T05:22:13;96517.09;;;7.82;50.81
61324;BME280;47203;48.428;11.974;2022-12-29T05:24:20;96521.59;;;7.86;50.46
61324;BME280;47203;48.428;11.974;2022-12-29T05:26:34;96519.53;;;7.89;50.43
61324;BME280;47203;48.428;11.974;2022-12-29T05:28:45;96519.00;;;7.92;50.53
61324;BME280;47203;48.428;11.974;2022-12-29T05:30:54;96509.84;;;7.94;50.69
61324;BME280;47203;48.428;11.974;2022-12-29T05:32:59;96511.44;;;7.95;50.58
61324;BME280;47203;48.428;11.974;2022-12-29T05:35:07;96506.75;;;7.97;50.35
61324;BME280;47203;48.428;11.974;2022-12-29T05:37:12;96514.09;;;8.00;50.68
61324;BME280;47203;48.428;11.974;2022-12-29T05:39:19;96503.34;;;8.02;50.33
61324;BME280;47203;48.428;11.974;2022-12-29T05:41:29;96507.31;;;8.04;50.31
61324;BME280;47203;48.428;11.974;2022-12-29T05:43:53;96502.84;;;8.05;50.24
61324;BME280;47203;48.428;11.974;2022-12-29T05:46:17;96501.00;;;8.06;50.43
61324;BME280;47203;48.428;11.974;2022-12-29T05:48:41;96497.09;;;8.08;50.46
61324;BME280;47203;48.428;11.974;2022-12-29T05:50:56;96501.31;;;8.09;50.50
61324;BME280;47203;48.428;11.974;2022-12-29T05:53:11;96506.56;;;8.09;50.40
61324;BME280;47203;48.428;11.974;2022-12-29T05:55:19;96504.72;;;8.10;50.41
61324;BME280;47203;48.428;11.974;2022-12-29T05:57:27;96509.69;;;8.11;50.40
61324;BME280;47203;48.428;11.974;2022-12-29T05:59:45;96501.84;;;8.11;50.18
61324;BME280;47203;48.428;11.974;2022-12-29T06:01:50;96507.38;;;8.15;50.45
61324;BME280;47203;48.428;11.974;2022-12-29T06:03:57;96505.53;;;8.15;50.41
61324;BME280;47203;48.428;11.974;2022-12-29T06:06:03;96507.91;;;8.17;50.34
61324;BME280;47203;48.428;11.974;2022-12-29T06:08:09;96507.13;;;8.16;50.08
61324;BME280;47203;48.428;11.974;2022-12-29T06:10:15;96499.25;;;8.16;50.52
61324;BME280;47203;48.428;11.974;2022-12-29T06:12:36;96499.00;;;8.18;50.47
61324;BME280;47203;48.428;11.974;2022-12-29T06:14:44;96502.41;;;8.18;50.24
61324;BME280;47203;48.428;11.974;2022-12-29T06:16:49;96507.38;;;8.20;49.99
61324;BME280;47203;48.428;11.974;2022-12-29T06:18:56;96507.94;;;8.22;50.18
61324;BME280;47203;48.428;11.974;2022-12-29T06:21:03;96496.91;;;8.20;49.93
61324;BME280;47203;48.428;11.974;2022-12-29T06:23:09;96509.50;;;8.23;50.19
61324;BME280;47203;48.428;11.974;2022-12-29T06:25:14;96508.72;;;8.23;49.98
61324;BME280;47203;48.428;11.974;2022-12-29T06:27:21;96508.22;;;8.26;50.13
61324;BME280;47203;48.428;11.974;2022-12-29T06:29:28;96496.94;;;8.25;49.86
61324;BME280;47203;48.428;11.974;2022-12-29T06:31:36;96501.69;;;8.28;50.06
61324;BME280;47203;48.428;11.974;2022-12-29T06:33:42;96498.00;;;8.29;50.08
61324;BME280;47203;48.428;11.974;2022-12-29T06:35:51;96502.75;;;8.32;49.83
61324;BME280;47203;48.428;11.974;2022-12-29T06:37:57;96501.44;;;8.35;49.79
61324;BME280;47203;48.428;11.974;2022-12-29T06:40:03;96514.53;;;8.35;49.95
61324;BME280;47203;48.428;11.974;2022-12-29T06:42:25;96510.63;;;8.37;49.71
61324;BME280;47203;48.428;11.974;2022-12-29T06:44:47;96514.28;;;8.36;49.82
61324;BME280;47203;48.428;11.974;2022-12-29T06:46:56;96522.19;;;8.42;49.76
61324;BME280;47203;48.428;11.974;2022-12-29T06:49:01;96517.72;;;8.42;49.55
61324;BME280;47203;48.428;11.974;2022-12-29T06:51:07;96515.19;;;8.47;49.51
61324;BME280;47203;48.428;11.974;2022-12-29T06:53:12;96512.28;;;8.49;49.43
61324;BME280;47203;48.428;11.974;2022-12-29T06:55:17;96513.06;;;8.49;49.51
61324;BME280;47203;48.428;11.974;2022-12-29T06:57:23;96521.50;;;8.51;49.60
61324;BME280;47203;48.428;11.974;2022-12-29T06:59:29;96517.81;;;8.52;49.49
61324;BME280;47203;48.428;11.974;2022-12-29T07:01:34;96511.53;;;8.53;49.24
61324;BME280;47203;48.428;11.974;2022-12-29T07:03:44;96518.09;;;8.56;49.29
61324;BME280;47203;48.428;11.974;2022-12-29T07:05:49;96511.25;;;8.55;49.39
61324;BME280;47203;48.428;11.974;2022-12-29T07:07:56;96522.84;;;8.59;49.17
61324;BME280;47203;48.428;11.974;2022-12-29T07:10:03;96521.53;;;8.62;49.09
61324;BME280;47203;48.428;11.974;2022-12-29T07:12:08;96526.28;;;8.65;49.39
61324;BME280;47203;48.428;11.974;2022-12-29T07:14:14;96521.03;;;8.65;49.22
61324;BME280;47203;48.428;11.974;2022-12-29T07:16:19;96533.13;;;8.71;49.14
61324;BME280;47203;48.428;11.974;2022-12-29T07:18:25;96537.06;;;8.73;48.77
61324;BME280;47203;48.428;11.974;2022-12-29T07:20:33;96535.78;;;8.76;48.85
61324;BME280;47203;48.428;11.974;2022-12-29T07:22:38;96550.19;;;8.79;48.97
61324;BME280;47203;48.428;11.974;2022-12-29T07:24:44;96545.50;;;8.81;48.71
61324;BME280;47203;48.428;11.974;2022-12-29T07:26:49;96550.50;;;8.82;49.04
61324;BME280;47203;48.428;11.974;2022-12-29T07:28:55;96549.19;;;8.85;48.59
61324;BME280;47203;48.428;11.974;2022-12-29T07:31:01;96546.31;;;8.86;48.93
61324;BME280;47203;48.428;11.974;2022-12-29T07:33:06;96541.59;;;8.88;48.99
61324;BME280;47203;48.428;11.974;2022-12-29T07:35:12;96555.50;;;8.94;49.03
61324;BME280;47203;48.428;11.974;2022-12-29T07:37:21;96558.41;;;8.98;48.71
61324;BME280;47203;48.428;11.974;2022-12-29T07:39:26;96550.00;;;9.01;48.77
61324;BME280;47203;48.428;11.974;2022-12-29T07:41:32;96560.81;;;9.04;48.75
61324;BME280;47203;48.428;11.974;2022-12-29T07:43:37;96563.94;;;9.06;48.92
61324;BME280;47203;48.428;11.974;2022-12-29T07:46:03;96560.03;;;9.09;48.71
61324;BME280;47203;48.428;11.974;2022-12-29T07:48:31;96564.50;;;9.08;48.94
61324;BME280;47203;48.428;11.974;2022-12-29T07:50:38;96570.53;;;9.09;48.56
61324;BME280;47203;48.428;11.974;2022-12-29T07:52:46;96567.13;;;9.08;48.57
61324;BME280;47203;48.428;11.974;2022-12-29T07:54:52;96574.47;;;9.12;49.13
61324;BME280;47203;48.428;11.974;2022-12-29T07:56:58;96577.91;;;9.17;49.11
61324;BME280;47203;48.428;11.974;2022-12-29T07:59:07;96573.72;;;9.21;49.34
61324;BME280;47203;48.428;11.974;2022-12-29T08:01:12;96571.88;;;9.22;48.98
61324;BME280;47203;48.428;11.974;2022-12-29T08:03:17;96548.78;;;9.19;48.79
61324;BME280;47203;48.428;11.974;2022-12-29T08:05:23;96552.44;;;9.18;48.99
61324;BME280;47203;48.428;11.974;2022-12-29T08:07:29;96559.25;;;9.14;48.83
61324;BME280;47203;48.428;11.974;2022-12-29T08:09:38;96561.88;;;9.08;49.07
61324;BME280;47203;48.428;11.974;2022-12-29T08:11:44;96563.69;;;9.08;48.91
61324;BME280;47203;48.428;11.974;2022-12-29T08:13:50;96552.66;;;9.06;48.66
61324;BME280;47203;48.428;11.974;2022-12-29T08:15:58;96553.97;;;9.03;48.72
61324;BME280;47203;48.428;11.974;2022-12-29T08:18:04;96561.56;;;9.05;48.82
61324;BME280;47203;48.428;11.974;2022-12-29T08:20:10;96560.81;;;9.04;48.63
61324;BME280;47203;48.428;11.974;2022-12-29T08:22:16;96559.22;;;9.03;48.74
61324;BME280;47203;48.428;11.974;2022-12-29T08:24:22;96558.44;;;9.03;48.57
61324;BME280;47203;48.428;11.974;2022-12-29T08:26:30;96557.41;;;9.04;48.50
61324;BME280;47203;48.428;11.974;2022-12-29T08:28:36;96564.75;;;9.07;48.37
61324;BME280;47203;48.428;11.974;2022-12-29T08:30:42;96560.81;;;9.09;48.46
61324;BME280;47203;48.428;11.974;2022-12-29T08:32:48;96552.44;;;9.13;48.36
61324;BME280;47203;48.428;11.974;2022-12-29T08:34:54;96551.66;;;9.17;48.12
61324;BME280;47203;48.428;11.974;2022-12-29T08:37:00;96557.16;;;9.21;48.24
61324;BME280;47203;48.428;11.974;2022-12-29T08:39:18;96556.66;;;9.24;48.19
61324;BME280;47203;48.428;11.974;2022-12-29T08:41:24;96552.47;;;9.28;48.16
61324;BME280;47203;48.428;11.974;2022-12-29T08:43:32;96547.50;;;9.32;48.00
61324;BME280;47203;48.428;11.974;2022-12-29T08:45:42;96545.13;;;9.35;47.89
61324;BME280;47203;48.428;11.974;2022-12-29T08:50:46;96545.41;;;9.44;48.06
61324;BME280;47203;48.428;11.974;2022-12-29T08:52:52;96543.31;;;9.51;47.95
61324;BME280;47203;48.428;11.974;2022-12-29T08:54:58;96553.03;;;9.56;47.98
61324;BME280;47203;48.428;11.974;2022-12-29T08:57:05;96552.53;;;9.64;47.58
61324;BME280;47203;48.428;11.974;2022-12-29T08:59:19;96563.28;;;9.68;47.52
61324;BME280;47203;48.428;11.974;2022-12-29T09:01:25;96566.19;;;9.76;47.52
61324;BME280;47203;48.428;11.974;2022-12-29T09:03:33;96569.06;;;9.85;47.45
61324;BME280;47203;48.428;11.974;2022-12-29T09:05:59;96558.31;;;9.92;47.54
61324;BME280;47203;48.428;11.974;2022-12-29T09:08:05;96551.22;;;9.98;47.57
61324;BME280;47203;48.428;11.974;2022-12-29T09:10:11;96565.94;;;10.04;47.55
61324;BME280;47203;48.428;11.974;2022-12-29T09:12:17;96564.09;;;10.09;47.45
61324;BME280;47203;48.428;11.974;2022-12-29T09:14:26;96565.66;;;10.16;47.11
61324;BME280;47203;48.428;11.974;2022-12-29T09:16:31;96564.31;;;10.23;47.18
61324;BME280;47203;48.428;11.974;2022-12-29T09:18:38;96576.44;;;10.29;47.04
61324;BME280;47203;48.428;11.974;2022-12-29T09:20:44;96565.66;;;10.36;46.96
61324;BME280;47203;48.428;11.974;2022-12-29T09:22:50;96571.44;;;10.43;47.07
61324;BME280;47203;48.428;11.974;2022-12-29T09:24:56;96574.31;;;10.52;47.28
61324;BME280;47203;48.428;11.974;2022-12-29T09:27:02;96567.44;;;10.61;47.12
61324;BME280;47203;48.428;11.974;2022-12-29T09:29:07;96569.53;;;10.70;47.07
61324;BME280;47203;48.428;11.974;2022-12-29T09:31:15;96569.53;;;10.75;46.76
61324;BME280;47203;48.428;11.974;2022-12-29T09:33:20;96578.69;;;10.82;46.94
61324;BME280;47203;48.428;11.974;2022-12-29T09:35:26;96571.31;;;10.90;46.79
61324;BME280;47203;48.428;11.974;2022-12-29T09:37:31;96576.81;;;10.98;46.54
61324;BME280;47203;48.428;11.974;2022-12-29T09:39:37;96566.75;;;11.06;46.85
61324;BME280;47203;48.428;11.974;2022-12-29T09:41:50;96569.09;;;11.12;46.58
61324;BME280;47203;48.428;11.974;2022-12-29T09:44:08;96567.75;;;11.20;47.30
61324;BME280;47203;48.428;11.974;2022-12-29T09:46:26;96555.56;;;11.29;47.04
61324;BME280;47203;48.428;11.974;2022-12-29T09:48:38;96557.84;;;11.46;47.00
61324;BME280;47203;48.428;11.974;2022-12-29T09:50:53;96546.22;;;11.52;47.08
61324;BME280;47203;48.428;11.974;2022-12-29T09:53:04;96565.34;;;11.68;46.99
61324;BME280;47203;48.428;11.974;2022-12-29T09:55:17;96571.59;;;11.78;47.21
61324;BME280;47203;48.428;11.974;2022-12-29T09:57:29;96573.69;;;11.81;47.25
61324;BME280;47203;48.428;11.974;2022-12-29T09:59:41;96571.84;;;11.81;47.28
61324;BME280;47203;48.428;11.974;2022-12-29T10:01:57;96570.03;;;11.77;47.44
61324;BME280;47203;48.428;11.974;2022-12-29T10:04:09;96576.59;;;11.79;47.53
61324;BME280;47203;48.428;11.974;2022-12-29T10:06:21;96579.03;;;11.76;47.32
61324;BME280;47203;48.428;11.974;2022-12-29T10:08:39;96565.59;;;11.72;47.11
61324;BME280;47203;48.428;11.974;2022-12-29T10:10:55;96567.16;;;11.73;47.62
61324;BME280;47203;48.428;11.974;2022-12-29T10:13:20;96566.66;;;11.71;47.28
61324;BME280;47203;48.428;11.974;2022-12-29T10:15:44;96570.91;;;11.67;47.45
61324;BME280;47203;48.428;11.974;2022-12-29T10:18:14;96563.81;;;11.62;47.17
61324;BME280;47203;48.428;11.974;2022-12-29T10:20:31;96572.72;;;11.72;47.51
61324;BME280;47203;48.428;11.974;2022-12-29T10:22:49;96562.94;;;11.72;47.68
61324;BME280;47203;48.428;11.974;2022-12-29T10:25:02;96560.03;;;11.74;47.66
61324;BME280;47203;48.428;11.974;2022-12-29T10:30:20;96559.19;;;11.78;47.80
61324;BME280;47203;48.428;11.974;2022-12-29T10:32:33;96550.50;;;11.78;47.43
61324;BME280;47203;48.428;11.974;2022-12-29T10:34:49;96555.22;;;11.81;47.74
61324;BME280;47203;48.428;11.974;2022-12-29T10:37:03;96554.69;;;11.84;47.51
61324;BME280;47203;48.428;11.974;2022-12-29T10:39:19;96545.72;;;11.85;47.64
61324;BME280;47203;48.428;11.974;2022-12-29T10:41:36;96554.41;;;11.85;47.46
61324;BME280;47203;48.428;11.974;2022-12-29T10:43:47;96549.13;;;11.85;47.50
61324;BME280;47203;48.428;11.974;2022-12-29T10:45:57;96547.03;;;11.87;47.26
61324;BME280;47203;48.428;11.974;2022-12-29T10:48:11;96550.72;;;11.86;47.33
61324;BME280;47203;48.428;11.974;2022-12-29T10:50:24;96540.16;;;11.86;47.22
61324;BME280;47203;48.428;11.974;2022-12-29T10:52:34;96547.78;;;11.88;47.25
61324;BME280;47203;48.428;11.974;2022-12-29T10:54:49;96532.50;;;11.90;46.91
61324;BME280;47203;48.428;11.974;2022-12-29T10:57:03;96528.50;;;11.93;47.07
61324;BME280;47203;48.428;11.974;2022-12-29T10:59:16;96536.69;;;11.96;46.73
61324;BME280;47203;48.428;11.974;2022-12-29T11:01:32;96521.09;;;12.00;46.71
61324;BME280;47203;48.428;11.974;2022-12-29T11:03:57;96516.56;;;12.05;46.67
61324;BME280;47203;48.428;11.974;2022-12-29T11:06:11;96519.44;;;12.09;47.06
61324;BME280;47203;48.428;11.974;2022-12-29T11:08:24;96516.97;;;12.18;46.51
61324;BME280;47203;48.428;11.974;2022-12-29T11:10:36;96512.66;;;12.27;46.44
61324;BME280;47203;48.428;11.974;2022-12-29T11:12:59;96510.97;;;12.36;46.42
61324;BME280;47203;48.428;11.974;2022-12-29T11:15:16;96510.84;;;12.47;46.34
61324;BME280;47203;48.428;11.974;2022-12-29T11:17:21;96512.13;;;12.54;46.30
61324;BME280;47203;48.428;11.974;2022-12-29T11:19:30;96502.00;;;12.62;45.83
61324;BME280;47203;48.428;11.974;2022-12-29T11:21:44;96504.28;;;12.68;45.89
61324;BME280;47203;48.428;11.974;2022-12-29T11:23:59;96506.88;;;12.73;45.25
61324;BME280;47203;48.428;11.974;2022-12-29T11:26:20;96513.16;;;12.78;45.20
61324;BME280;47203;48.428;11.974;2022-12-29T11:28:31;96514.44;;;12.80;45.34
61324;BME280;47203;48.428;11.974;2022-12-29T11:30:36;96518.38;;;12.83;45.05
61324;BME280;47203;48.428;11.974;2022-12-29T11:32:51;96516.50;;;12.83;44.73
61324;BME280;47203;48.428;11.974;2022-12-29T11:34:58;96521.22;;;12.86;45.36
61324;BME280;47203;48.428;11.974;2022-12-29T11:37:12;96515.41;;;12.89;44.89
61324;BME280;47203;48.428;11.974;2022-12-29T11:39:33;96508.75;;;12.92;45.03
61324;BME280;47203;48.428;11.974;2022-12-29T11:41:39;96510.31;;;12.93;45.29
61324;BME280;47203;48.428;11.974;2022-12-29T11:43:45;96506.09;;;12.92;45.38
61324;BME280;47203;48.428;11.974;2022-12-29T11:45:53;96497.97;;;12.88;45.21